Time;durP1;ratioP1;P1;durP2;ratioP2;P2;SDS_P1;SDS_P2;PMS_P1;PMS_P2;Temp;Humidity;BMP_temperature;BMP_pressure;BME280_temperature;BME280_humidity;BME280_pressure;Samples;Min_cycle;Max_cycle;Signal;HPM_P1;HPM_P2
2022/06/02 00:01:53;;;;;;;11.67;10.43;;;10.30;99.90;;;;;;5115797;28;20787;-66
2022/06/02 00:04:25;;;;;;;12.10;10.73;;;10.20;99.90;;;;;;5116261;28;20092;-66
2022/06/02 00:06:56;;;;;;;11.50;10.30;;;10.30;99.90;;;;;;5115983;28;20285;-66
2022/06/02 00:09:32;;;;;;;11.60;10.50;;;10.30;99.90;;;;;;5098235;28;20376;-66
2022/06/02 00:12:02;;;;;;;14.33;10.83;;;10.30;99.90;;;;;;5115714;28;20282;-66
2022/06/02 00:14:55;;;;;;;12.03;10.83;;;;;;;;;;5115747;28;20380;-66
2022/06/02 00:17:33;;;;;;;12.30;11.10;;;;;;;;;;5099683;28;20635;-66
2022/06/02 00:20:18;;;;;;;13.50;11.43;;;;;;;;;;5115557;28;20776;-66
2022/06/02 00:23:03;;;;;;;11.82;10.65;;;;;;;;;;5115406;28;20307;-66
2022/06/02 00:25:41;;;;;;;11.10;9.98;;;;;;;;;;5094196;28;20059;-66
2022/06/02 00:28:24;;;;;;;12.83;10.17;;;;;;;;;;5095284;28;20571;-66
2022/06/02 00:30:59;;;;;;;12.50;11.17;;;;;;;;;;5095110;28;20286;-66
2022/06/02 00:33:25;;;;;;;;;;;;;;;;;;5095412;28;20774;-66
2022/06/02 00:35:57;;;;;;;11.87;10.47;;;;;;;;;;5094929;28;20360;-66
2022/06/02 00:38:23;;;;;;;12.10;10.47;;;;;;;;;;5095138;28;20282;-66
2022/06/02 00:40:49;;;;;;;11.00;9.90;;;;;;;;;;5094804;28;20427;-66
2022/06/02 00:43:30;;;;;;;11.73;10.33;;;;;;;;;;5094985;28;20301;-66
2022/06/02 00:46:15;;;;;;;12.10;10.90;;;;;;;;;;5094739;28;20302;-66
2022/06/02 00:48:44;;;;;;;11.40;10.30;;;;;;;;;;5094800;28;20278;-67
2022/06/02 00:51:12;;;;;;;11.53;10.10;;;;;;;;;;5093989;28;20075;-66
2022/06/02 00:57:30;;;;;;;11.50;10.30;;;;;;;;;;5094786;28;20309;-66
2022/06/02 01:00:09;;;;;;;11.07;9.87;;;9.90;99.90;;;;;;5094776;28;20294;-66
2022/06/02 01:02:55;;;;;;;11.40;10.13;;;9.80;99.90;;;;;;5094609;28;20326;-66
2022/06/02 01:05:44;;;;;;;10.80;9.70;;;9.70;99.90;;;;;;5094560;28;20278;-66
2022/06/02 01:08:46;;;;;;;11.47;10.27;;;9.70;99.90;;;;;;5094573;28;20755;-66
2022/06/02 01:11:42;;;;;;;10.57;9.37;;;9.60;99.90;;;;;;5093519;28;20766;-66
2022/06/02 01:14:40;;;;;;;9.87;8.87;;;9.60;99.90;;;;;;5094247;28;20774;-66
2022/06/02 01:17:09;;;;;;;10.57;9.43;;;9.60;99.90;;;;;;5093761;28;20321;-66
2022/06/02 01:20:07;;;;;;;10.63;9.53;;;;;;;;;;5094444;28;20286;-66
2022/06/02 01:22:55;;;;;;;11.17;10.03;;;;;;;;;;5081829;28;20897;-66
2022/06/02 01:25:30;;;;;;;9.93;8.97;;;;;;;;;;5100932;28;20321;-67
2022/06/02 01:28:31;;;;;;;10.13;8.85;;;;;;;;;;5114215;28;20769;-67
2022/06/02 01:31:09;;;;;;;10.43;9.33;;;;;;;;;;5051390;28;20596;-67
2022/06/02 01:33:35;;;;;;;11.00;9.67;;;;;;;;;;5106577;28;20309;-66
2022/06/02 01:36:20;;;;;;;9.97;8.97;;;;;;;;;;5114228;28;20286;-66
2022/06/02 01:38:56;;;;;;;10.43;9.25;;;;;;;;;;5095998;28;20319;-66
2022/06/02 01:41:22;;;;;;;;;;;;;;;;;;5115003;28;20074;-67
2022/06/02 01:43:54;;;;;;;11.00;9.90;;;;;;;;;;5113997;28;20329;-67
2022/06/02 01:46:36;;;;;;;9.47;8.57;;;;;;;;;;5114010;28;20052;-66
2022/06/02 01:49:02;;;;;;;9.97;8.97;;;;;;;;;;5113964;28;20293;-66
2022/06/02 01:51:34;;;;;;;11.93;8.53;;;;;;;;;;5114251;28;20285;-66
2022/06/02 01:54:06;;;;;;;11.07;9.20;;;;;;;;;;5113687;28;20660;-66
2022/06/02 01:56:32;;;;;;;10.63;8.97;;;;;;;;;;5113802;28;20807;-66
2022/06/02 01:59:21;;;;;;;9.23;8.33;;;;;;;;;;5095582;28;20297;-66
2022/06/02 02:02:08;;;;;;;9.47;8.57;;;;;;;;;;5113633;28;20288;-66
2022/06/02 02:04:52;;;;;;;11.23;8.43;;;;;;;;;;5102923;28;20297;-66
2022/06/02 02:07:26;;;;;;;10.90;8.57;;;;;;;;;;5113863;28;20290;-66
2022/06/02 02:09:55;;;;;;;10.10;8.73;;;;;;;;;;5095490;28;20050;-67
2022/06/02 02:12:28;;;;;;;10.03;8.90;;;;;;;;;;5113739;28;20372;-66
2022/06/02 02:15:05;;;;;;;8.97;8.07;;;;;;;;;;5113274;28;20305;-66
2022/06/02 02:17:49;;;;;;;9.63;8.23;;;;;;;;;;5112884;28;20783;-66
2022/06/02 02:20:29;;;;;;;8.98;8.07;;;;;;;;;;5113416;28;20290;-66
2022/06/02 02:23:07;;;;;;;8.37;7.33;;;;;;;;;;5113279;28;20495;-66
2022/06/02 02:25:52;;;;;;;9.17;7.97;;;;;;;;;;5113663;28;20293;-66
2022/06/02 02:28:21;;;;;;;10.13;7.93;;;;;;;;;;5113550;28;20277;-66
2022/06/02 02:31:05;;;;;;;8.30;7.40;;;;;;;;;;5113497;28;20074;-67
2022/06/02 02:33:46;;;;;;;8.97;7.70;;;;;;;;;;5113338;28;20297;-67
2022/06/02 02:36:31;;;;;;;8.53;7.30;;;;;;;;;;5112957;28;20860;-67
2022/06/02 02:39:03;;;;;;;10.00;7.82;;;;;;;;;;5095217;28;20321;-67
2022/06/02 02:41:43;;;;;;;9.57;7.57;;;;;;;;;;5095248;28;20048;-67
2022/06/02 02:44:22;;;;;;;8.20;7.40;;;;;;;;;;5112982;28;20300;-67
2022/06/02 02:46:54;;;;;;;13.50;7.40;;;;;;;;;;5113155;28;20286;-67
2022/06/02 02:49:43;;;;;;;7.40;6.67;;;;;;;;;;5113391;28;20364;-66
2022/06/02 02:52:33;;;;;;;8.77;6.97;;;;;;;;;;5112843;28;20278;-67
2022/06/02 02:55:05;;;;;;;8.77;7.80;;;;;;;;;;5112809;28;20273;-67
2022/06/02 02:57:40;;;;;;;7.47;6.63;;;;;;;;;;5113171;28;20769;-67
2022/06/02 03:00:15;;;;;;;8.05;7.25;;;;;;;;;;5112908;28;20286;-67
2022/06/02 03:02:41;;;;;;;8.77;7.18;;;;;;;;;;5113303;28;20090;-66
2022/06/02 03:05:16;;;;;;;8.40;7.40;;;;;;;;;;5094606;28;20095;-67
2022/06/02 03:07:42;;;;;;;;;;;;;;;;;;5113599;28;20364;-67
2022/06/02 03:10:14;;;;;;;7.50;6.40;;;;;;;;;;5112843;28;19963;-67
2022/06/02 03:13:06;;;;;;;7.73;6.80;;;8.90;99.90;;;;;;5113046;28;20100;-66
2022/06/02 03:15:47;;;;;;;8.43;6.77;;;8.90;99.90;;;;;;5109631;28;20304;-66
2022/06/02 03:18:54;;;;;;;9.60;6.90;;;8.90;99.90;;;;;;5112714;28;20293;-67
2022/06/02 03:21:36;;;;;;;9.03;7.30;;;8.80;99.90;;;;;;5094041;28;20311;-67
2022/06/02 03:24:10;;;;;;;13.03;7.23;;;8.80;99.90;;;;;;5112615;28;20292;-67
2022/06/02 03:26:54;;;;;;;9.13;6.40;;;8.80;99.90;;;;;;5113148;28;20293;-67
2022/06/02 03:29:34;;;;;;;8.20;6.60;;;8.80;99.90;;;;;;5114066;28;20297;-67
2022/06/02 03:32:06;;;;;;;8.83;6.47;;;8.80;99.90;;;;;;5116687;28;20796;-67
2022/06/02 03:34:57;;;;;;;9.37;6.70;;;8.80;99.90;;;;;;5116512;28;20300;-67
2022/06/02 03:37:32;;;;;;;7.87;6.73;;;8.80;99.90;;;;;;5116538;28;20803;-67
2022/06/02 03:40:05;;;;;;;9.98;7.35;;;8.80;99.90;;;;;;5116904;28;20273;-66
2022/06/02 03:42:46;;;;;;;9.60;7.10;;;8.80;99.90;;;;;;5116623;28;20498;-66
2022/06/02 03:45:49;;;;;;;9.63;6.80;;;8.90;99.90;;;;;;5116548;28;20285;-67
2022/06/02 03:48:48;;;;;;;10.73;7.13;;;8.90;99.90;;;;;;5116248;28;20610;-67
2022/06/02 03:51:31;;;;;;;9.60;6.93;;;9.00;99.90;;;;;;5116110;28;20764;-67
2022/06/02 03:54:26;;;;;;;10.83;7.20;;;9.10;99.90;;;;;;5116577;28;20297;-66
2022/06/02 03:57:09;;;;;;;9.87;7.30;;;9.10;99.90;;;;;;5084584;28;20761;-66
2022/06/02 04:00:09;;;;;;;8.90;7.73;;;9.20;99.90;;;;;;5116246;28;20281;-66
2022/06/02 04:02:55;;;;;;;8.13;7.33;;;9.20;99.90;;;;;;5116370;28;20285;-67
2022/06/02 04:05:35;;;;;;;9.87;7.00;;;9.30;99.90;;;;;;5097418;28;20377;-66
2022/06/02 04:08:25;;;;;;;9.90;7.63;;;9.30;99.90;;;;;;5098062;28;20343;-66
2022/06/02 04:11:06;;;;;;;8.67;6.60;;;9.30;99.90;;;;;;5116309;28;20285;-66
2022/06/02 04:14:09;;;;;;;9.77;6.97;;;9.20;99.90;;;;;;5116042;28;20308;-66
2022/06/02 04:16:56;;;;;;;10.17;7.23;;;9.30;99.90;;;;;;5116097;28;20341;-66
2022/06/02 04:22:30;;;;;;;;;;;9.30;99.90;;;;;;5116040;28;20304;-66
2022/06/02 04:25:18;;;;;;;8.83;7.43;;;9.30;99.90;;;;;;5115785;28;19931;-66
2022/06/02 04:28:00;;;;;;;8.50;7.60;;;9.30;99.90;;;;;;5115786;28;20368;-66
2022/06/02 04:30:42;;;;;;;9.50;7.60;;;9.40;99.90;;;;;;5115340;28;20286;-66
2022/06/02 04:33:21;;;;;;;10.33;7.60;;;9.40;99.90;;;;;;5097264;28;20305;-67
2022/06/02 04:35:54;;;;;;;10.33;7.50;;;9.40;99.90;;;;;;5115619;28;20641;-66
2022/06/02 04:38:54;;;;;;;11.57;7.97;;;9.40;99.90;;;;;;5115255;28;20315;-66
2022/06/02 04:41:26;;;;;;;9.07;7.17;;;9.50;99.90;;;;;;5114032;28;20293;-66
2022/06/02 04:44:13;;;;;;;9.47;7.37;;;9.60;99.90;;;;;;5115512;28;20368;-66
2022/06/02 04:47:02;;;;;;;10.40;7.10;;;9.80;99.90;;;;;;5115430;28;20282;-66
2022/06/02 04:49:41;;;;;;;9.00;6.83;;;;;;;;;;5114916;28;20293;-66
2022/06/02 04:52:37;;;;;;;9.50;6.50;;;10.10;99.90;;;;;;5115511;28;20285;-66
2022/06/02 04:55:16;;;;;;;8.45;6.32;;;10.20;99.90;;;;;;5115260;28;20685;-66
2022/06/02 04:58:09;;;;;;;11.60;7.07;;;10.40;99.90;;;;;;5115179;28;20044;-66
2022/06/02 05:01:13;;;;;;;8.47;6.93;;;10.40;99.90;;;;;;5115176;28;20278;-66
2022/06/02 05:03:46;;;;;;;8.97;6.40;;;10.60;99.90;;;;;;5114934;28;20316;-66
2022/06/02 05:06:36;;;;;;;9.00;6.90;;;10.70;99.90;;;;;;5114538;28;20284;-67
2022/06/02 05:09:31;;;;;;;7.50;6.23;;;10.80;99.90;;;;;;5115297;28;20286;-66
2022/06/02 05:12:10;;;;;;;8.47;6.27;;;11.00;99.90;;;;;;5115216;28;20282;-66
2022/06/02 05:14:49;;;;;;;9.00;6.30;;;11.10;99.90;;;;;;5114323;28;20333;-66
2022/06/02 05:17:40;;;;;;;8.10;5.80;;;11.20;99.90;;;;;;5114630;28;20297;-67
2022/06/02 05:20:33;;;;;;;8.77;6.10;;;;;;;;;;5114946;28;20667;-66
2022/06/02 05:23:02;;;;;;;7.50;6.07;;;;;;;;;;5111667;28;20293;-66
2022/06/02 05:26:13;;;;;;;7.77;5.77;;;11.70;99.90;;;;;;5114038;28;20391;-66
2022/06/02 05:29:12;;;;;;;7.97;5.60;;;11.80;99.90;;;;;;5085393;28;20765;-66
2022/06/02 05:31:51;;;;;;;6.90;5.30;;;;;;;;;;5096185;28;20624;-66
2022/06/02 05:34:27;;;;;;;10.23;5.70;;;;;;;;;;5096222;28;20788;-66
2022/06/02 05:37:12;;;;;;;8.70;4.97;;;12.30;99.90;;;;;;5114485;28;20284;-66
2022/06/02 05:39:51;;;;;;;7.28;5.00;;;12.40;99.90;;;;;;5114010;28;20282;-66
2022/06/02 05:42:46;;;;;;;10.40;5.30;;;12.50;99.90;;;;;;5114188;28;20044;-67
2022/06/02 05:45:22;;;;;;;5.72;4.43;;;12.70;99.90;;;;;;5113814;28;20402;-67
2022/06/02 05:48:06;;;;;;;8.00;4.33;;;;;;;;;;5114291;28;20055;-67
2022/06/02 05:50:44;;;;;;;4.67;3.60;;;15.40;99.90;;;;;;5114015;28;20618;-67
2022/06/02 05:53:33;;;;;;;4.33;2.70;;;17.40;99.90;;;;;;5113222;28;20301;-67
2022/06/02 05:56:27;;;;;;;5.90;3.33;;;17.80;99.90;;;;;;5114190;28;20317;-67
2022/06/02 05:59:34;;;;;;;6.20;2.80;;;20.20;99.90;;;;;;5114130;28;20495;-67
2022/06/02 06:02:09;;;;;;;5.17;2.77;;;20.20;99.90;;;;;;5113149;28;20491;-67
2022/06/02 06:04:44;;;;;;;;;;;21.20;99.90;;;;;;5114072;28;20487;-67
2022/06/02 06:07:46;;;;;;;5.03;2.67;;;21.30;94.80;;;;;;5096324;28;19920;-67
2022/06/02 06:10:45;;;;;;;3.80;2.20;;;21.60;90.00;;;;;;5113999;28;20055;-67
2022/06/02 06:13:21;;;;;;;4.20;1.97;;;;;;;;;;5105205;28;20574;-67
2022/06/02 06:16:02;;;;;;;3.30;1.80;;;21.50;99.60;;;;;;5114056;28;20096;-68
2022/06/02 06:19:05;;;;;;;3.63;1.90;;;21.50;99.90;;;;;;5113333;28;20497;-68
2022/06/02 06:22:01;;;;;;;4.03;1.87;;;21.10;85.30;;;;;;5113192;28;20043;-68
2022/06/02 06:24:50;;;;;;;3.43;1.57;;;21.80;94.60;;;;;;5095471;28;20104;-68
2022/06/02 06:27:37;;;;;;;3.70;1.73;;;23.00;68.10;;;;;;5113436;28;20129;-68
2022/06/02 06:30:09;;;;;;;3.40;1.73;;;23.90;66.00;;;;;;5113525;28;20384;-68
2022/06/02 06:32:52;;;;;;;3.60;1.60;;;25.10;64.50;;;;;;5113440;28;20048;-69
2022/06/02 06:35:21;;;;;;;4.27;1.67;;;;;;;;;;5113723;28;20094;-68
2022/06/02 06:38:00;;;;;;;4.27;1.60;;;26.00;49.30;;;;;;5113393;28;20056;-69
2022/06/02 06:40:58;;;;;;;4.83;1.50;;;26.40;53.10;;;;;;5113302;28;20054;-68
2022/06/02 06:43:45;;;;;;;3.03;1.43;;;26.50;48.70;;;;;;5113247;28;20456;-69
2022/06/02 06:46:28;;;;;;;4.57;1.50;;;26.30;50.30;;;;;;5113249;28;20389;-68
2022/06/02 06:49:13;;;;;;;3.00;1.50;;;25.50;48.30;;;;;;5095704;28;20048;-68
2022/06/02 06:52:03;;;;;;;2.67;1.38;;;24.60;51.60;;;;;;5095192;28;20043;-68
2022/06/02 06:55:05;;;;;;;4.53;1.33;;;23.10;52.70;;;;;;5113056;28;20040;-68
2022/06/02 06:58:06;;;;;;;4.20;1.50;;;21.90;56.10;;;;;;5113049;28;20514;-68
2022/06/02 07:00:48;;;;;;;2.73;1.50;;;20.90;58.40;;;;;;5113030;28;20086;-68
2022/06/02 07:03:27;;;;;;;3.57;1.40;;;20.30;68.00;;;;;;5112608;28;20453;-68
2022/06/02 07:06:27;;;;;;;3.60;1.17;;;;;;;;;;5115440;28;20044;-69
2022/06/02 07:09:01;;;;;;;4.73;1.70;;;;;;;;;;5083789;28;20462;-68
2022/06/02 07:15:01;;;;;;;4.30;1.50;;;20.40;69.30;;;;;;5117085;28;20479;-68
2022/06/02 07:17:41;;;;;;;4.17;1.40;;;21.80;66.30;;;;;;5116951;28;20126;-68
2022/06/02 07:20:18;;;;;;;3.93;1.63;;;23.50;57.00;;;;;;5117487;28;20047;-68
2022/06/02 07:23:02;;;;;;;3.87;1.33;;;24.70;55.10;;;;;;5117099;28;20055;-68
2022/06/02 07:25:38;;;;;;;3.25;1.33;;;;;;;;;;5116772;28;20086;-68
2022/06/02 07:28:42;;;;;;;3.37;1.20;;;26.50;49.40;;;;;;5116903;28;20063;-69
2022/06/02 07:31:37;;;;;;;2.73;1.30;;;27.20;41.60;;;;;;5087604;28;20097;-69
2022/06/02 07:34:09;;;;;;;3.80;1.53;;;;;;;;;;5116931;28;20036;-69
2022/06/02 07:36:59;;;;;;;3.70;1.50;;;28.30;43.80;;;;;;5116345;28;20495;-69
2022/06/02 07:39:43;;;;;;;4.15;1.60;;;29.00;41.40;;;;;;5116807;28;20448;-69
2022/06/02 07:42:12;;;;;;;7.77;1.77;;;;;;;;;;5098836;28;20412;-69
2022/06/02 07:44:47;;;;;;;3.22;1.80;;;;;;;;;;5116349;28;20403;-69
2022/06/02 07:47:24;;;;;;;3.67;1.70;;;29.50;37.70;;;;;;5116840;28;20134;-69
2022/06/02 07:49:54;;;;;;;3.40;1.60;;;;;;;;;;5116357;28;20147;-69
2022/06/02 07:52:31;;;;;;;4.45;1.63;;;29.90;39.00;;;;;;5116653;28;20048;-69
2022/06/02 07:55:03;;;;;;;2.90;1.48;;;30.00;38.80;;;;;;5116473;28;20047;-69
2022/06/02 07:57:53;;;;;;;3.72;1.67;;;29.20;39.10;;;;;;5116337;28;20047;-69
2022/06/02 08:00:20;;;;;;;6.60;2.20;;;;;;;;;;5098628;28;20048;-68
2022/06/02 08:02:58;;;;;;;3.03;1.58;;;26.80;40.80;;;;;;5115978;28;20087;-69
2022/06/02 08:05:27;;;;;;;3.45;1.20;;;25.90;42.30;;;;;;5116224;28;20052;-68
2022/06/02 08:08:00;;;;;;;3.13;1.50;;;24.80;43.30;;;;;;5115839;28;20055;-68
2022/06/02 08:11:07;;;;;;;5.50;1.80;;;24.30;44.50;;;;;;5116350;28;20047;-68
2022/06/02 08:13:49;;;;;;;3.38;1.75;;;24.60;45.90;;;;;;5081381;28;20044;-69
2022/06/02 08:16:29;;;;;;;2.97;1.50;;;25.70;45.20;;;;;;5114918;28;20072;-69
2022/06/02 08:19:01;;;;;;;6.03;1.50;;;;;;;;;;5115867;28;20051;-69
2022/06/02 08:21:38;;;;;;;5.10;1.83;;;27.20;42.30;;;;;;5116062;28;20048;-68
2022/06/02 08:24:16;;;;;;;4.40;1.58;;;;;;;;;;5115868;28;20043;-68
2022/06/02 08:27:01;;;;;;;4.38;1.60;;;26.30;41.70;;;;;;5115239;28;20055;-70
2022/06/02 08:29:32;;;;;;;4.47;1.70;;;25.50;43.00;;;;;;5097867;28;20054;-68
2022/06/02 08:31:58;;;;;;;3.22;1.60;;;24.20;44.60;;;;;;5115424;28;20493;-68
2022/06/02 08:35:04;;;;;;;3.85;1.45;;;23.80;45.90;;;;;;5115607;28;20056;-68
2022/06/02 08:37:47;;;;;;;4.35;2.22;;;24.10;47.10;;;;;;5115823;28;20122;-68
2022/06/02 08:40:31;;;;;;;3.42;1.65;;;23.90;47.20;;;;;;5115635;28;20155;-69
2022/06/02 08:43:30;;;;;;;5.05;1.45;;;23.70;48.10;;;;;;5115116;28;20051;-68
2022/06/02 08:46:21;;;;;;;5.10;1.70;;;23.90;48.70;;;;;;5115373;28;20059;-69
2022/06/02 08:49:07;;;;;;;4.63;1.30;;;24.00;47.80;;;;;;5097029;28;20044;-68
2022/06/02 08:51:51;;;;;;;2.80;1.27;;;24.00;48.50;;;;;;5115321;28;20040;-68
2022/06/02 08:54:17;;;;;;;4.00;1.63;;;;;;;;;;5115356;28;20471;-68
2022/06/02 08:57:15;;;;;;;3.30;1.53;;;23.30;47.20;;;;;;5115258;28;20396;-68
2022/06/02 08:59:41;;;;;;;2.97;1.50;;;;;;;;;;5096815;28;20036;-68
2022/06/02 09:02:11;;;;;;;3.83;1.50;;;;;;;;;;5115088;28;20044;-67
2022/06/02 09:04:55;;;;;;;4.47;1.30;;;;;;;;;;5115373;28;20044;-67
2022/06/02 09:07:28;;;;;;;3.50;1.83;;;;;;;;;;5115155;28;20040;-66
2022/06/02 09:10:00;;;;;;;6.60;1.60;;;;;;;;;;5114788;28;20135;-67
2022/06/02 09:12:43;;;;;;;3.93;1.57;;;;;;;;;;5114876;28;20085;-69
2022/06/02 09:15:15;;;;;;;4.50;1.67;;;;;;;;;;5114999;28;20043;-66
2022/06/02 09:18:10;;;;;;;4.00;1.20;;;21.60;51.30;;;;;;5114577;28;20109;-67
2022/06/02 09:21:14;;;;;;;3.08;1.30;;;21.50;51.80;;;;;;5114703;28;20056;-66
2022/06/02 09:24:10;;;;;;;2.77;1.10;;;21.40;52.40;;;;;;5101360;28;20130;-66
2022/06/02 09:27:14;;;;;;;5.90;1.83;;;21.40;53.70;;;;;;5114827;28;20102;-66
2022/06/02 09:29:48;;;;;;;4.40;1.20;;;21.40;54.40;;;;;;5113991;28;20059;-67
2022/06/02 09:32:22;;;;;;;3.30;1.30;;;21.50;53.90;;;;;;5114826;28;20051;-67
2022/06/02 09:35:07;;;;;;;;;;;21.30;54.50;;;;;;5114656;28;20066;-67
2022/06/02 09:37:47;;;;;;;3.90;1.83;;;21.30;55.90;;;;;;5114460;28;19923;-66
2022/06/02 09:40:31;;;;;;;4.00;1.50;;;21.50;55.90;;;;;;5096866;28;20079;-66
2022/06/02 09:43:12;;;;;;;5.53;1.50;;;21.60;55.70;;;;;;5114142;28;20055;-66
2022/06/02 09:45:56;;;;;;;3.27;1.40;;;21.50;56.20;;;;;;5114199;28;20510;-70
2022/06/02 09:48:52;;;;;;;2.88;1.13;;;21.40;55.30;;;;;;5114653;28;20057;-67
2022/06/02 09:51:38;;;;;;;3.07;1.30;;;21.20;53.50;;;;;;5114352;28;20051;-67
2022/06/02 09:54:41;;;;;;;5.00;1.93;;;21.20;54.30;;;;;;5113774;28;20058;-67
2022/06/02 09:57:58;;;;;;;2.43;1.30;;;21.10;55.00;;;;;;5095980;28;20126;-67
2022/06/02 10:00:33;;;;;;;3.27;1.43;;;;;;;;;;5113951;28;20403;-67
2022/06/02 10:02:59;;;;;;;3.83;1.40;;;;;;;;;;5113812;28;20052;-67
2022/06/02 10:05:41;;;;;;;5.50;1.70;;;;;;;;;;5114157;28;20097;-67
2022/06/02 10:08:16;;;;;;;4.53;1.47;;;;;;;;;;5113893;28;20059;-67
2022/06/02 10:10:54;;;;;;;5.13;1.60;;;;;;;;;;5113973;28;20056;-68
2022/06/02 10:13:39;;;;;;;2.53;1.30;;;;;;;;;;5113940;28;20039;-67
2022/06/02 10:16:05;;;;;;;;;;;;;;;;;;5114021;28;20047;-67
2022/06/02 10:18:46;;;;;;;3.13;1.67;;;;;;;;;;5113839;28;19919;-67
2022/06/02 10:21:19;;;;;;;3.40;1.40;;;;;;;;;;5113304;28;20073;-67
2022/06/02 10:23:45;;;;;;;4.40;1.50;;;;;;;;;;5113755;28;20123;-67
2022/06/02 10:26:31;;;;;;;4.97;1.53;;;;;;;;;;5113209;28;20091;-67
2022/06/02 10:29:16;;;;;;;4.63;2.00;;;;;;;;;;5095264;28;20445;-67
2022/06/02 10:31:42;;;;;;;;;;;;;;;;;;5113818;28;20051;-67
2022/06/02 10:34:31;;;;;;;4.10;1.43;;;;;;;;;;5094944;28;19920;-67
2022/06/02 10:37:09;;;;;;;4.00;1.50;;;20.70;92.50;;;;;;5113302;28;20399;-68
2022/06/02 10:39:59;;;;;;;5.43;1.43;;;20.60;92.70;;;;;;5112881;28;20040;-68
2022/06/02 10:42:47;;;;;;;4.80;1.50;;;20.70;92.00;;;;;;5113543;28;20086;-67
2022/06/02 10:45:25;;;;;;;3.73;1.97;;;20.60;92.60;;;;;;5113216;28;20035;-67
2022/06/02 10:48:06;;;;;;;7.13;1.60;;;20.70;92.90;;;;;;5112999;28;20046;-69
2022/06/02 10:50:44;;;;;;;4.70;1.53;;;20.70;92.90;;;;;;5113154;28;20395;-68
2022/06/02 10:53:21;;;;;;;4.10;1.63;;;20.50;92.90;;;;;;5112971;28;20040;-68
2022/06/02 10:56:24;;;;;;;3.73;1.63;;;20.50;94.00;;;;;;5113294;28;20388;-68
2022/06/02 10:59:16;;;;;;;5.03;1.57;;;20.50;94.00;;;;;;5095077;28;20079;-68
2022/06/02 11:02:20;;;;;;;3.23;1.40;;;20.60;93.40;;;;;;5094612;28;20055;-69
2022/06/02 11:05:24;;;;;;;4.50;1.90;;;20.60;93.50;;;;;;5063941;28;20051;-68
2022/06/02 11:07:55;;;;;;;3.47;1.50;;;20.70;93.50;;;;;;5113419;28;20127;-69
2022/06/02 11:10:25;;;;;;;4.80;1.50;;;20.60;93.20;;;;;;5095241;28;20048;-68
2022/06/02 11:13:03;;;;;;;5.03;1.70;;;20.60;92.80;;;;;;5113147;28;20141;-68
2022/06/02 11:15:51;;;;;;;5.23;1.83;;;20.50;92.90;;;;;;5112853;28;20086;-69
2022/06/02 11:18:45;;;;;;;4.63;1.80;;;20.30;92.70;;;;;;5094974;28;20059;-68
2022/06/02 11:21:22;;;;;;;3.63;1.63;;;20.30;93.50;;;;;;5112765;28;20043;-69
2022/06/02 11:24:09;;;;;;;4.67;1.53;;;20.20;93.80;;;;;;5112811;28;20075;-68
2022/06/02 11:26:40;;;;;;;3.70;1.70;;;20.30;93.80;;;;;;5112976;28;20055;-71
2022/06/02 11:29:25;;;;;;;6.43;1.70;;;;;;;;;;5094820;28;20058;-68
2022/06/02 11:32:11;;;;;;;3.50;1.67;;;;;;;;;;5113165;28;20043;-68
2022/06/02 11:34:43;;;;;;;3.40;1.43;;;;;;;;;;5112733;28;20036;-68
2022/06/02 11:37:15;;;;;;;2.87;1.40;;;;;;;;;;5112772;28;20040;-68
2022/06/02 11:39:41;;;;;;;3.23;1.67;;;;;;;;;;5078189;28;20117;-66
2022/06/02 11:42:22;;;;;;;3.33;1.30;;;;;;;;;;5112568;28;20048;-66
2022/06/02 11:45:07;;;;;;;5.93;1.63;;;19.70;79.20;;;;;;5112778;28;20058;-66
2022/06/02 11:47:54;;;;;;;5.53;1.93;;;19.70;80.90;;;;;;5113233;28;20040;-66
2022/06/02 11:50:45;;;;;;;1.93;1.30;;;19.60;92.80;;;;;;5112565;28;20048;-66
2022/06/02 11:53:30;;;;;;;3.37;1.50;;;19.40;92.60;;;;;;5086987;28;20052;-65
2022/06/02 11:55:58;;;;;;;4.38;1.35;;;;;;;;;;5116669;28;20407;-66
2022/06/02 11:58:33;;;;;;;4.50;1.40;;;;;;;;;;5116347;28;20094;-66
2022/06/02 12:01:14;;;;;;;4.43;1.63;;;19.40;98.00;;;;;;5116236;28;20050;-68
2022/06/02 12:03:59;;;;;;;3.23;1.30;;;19.40;68.60;;;;;;5116600;28;20044;-65
2022/06/02 12:06:33;;;;;;;2.28;1.42;;;19.40;69.40;;;;;;5116158;27;20491;-65
2022/06/02 12:09:34;;;;;;;3.40;1.40;;;19.40;68.50;;;;;;5116328;28;20126;-65
2022/06/02 12:12:19;;;;;;;4.03;1.33;;;19.50;69.10;;;;;;5116293;28;20043;-67
2022/06/02 12:15:11;;;;;;;4.20;1.77;;;19.30;67.90;;;;;;5116403;28;20047;-66
2022/06/02 12:17:56;;;;;;;3.67;1.60;;;19.20;69.60;;;;;;5116148;28;20058;-67
2022/06/02 12:20:40;;;;;;;3.22;1.40;;;19.10;72.80;;;;;;5115688;28;20051;-65
2022/06/02 12:23:18;;;;;;;5.45;1.67;;;19.00;72.40;;;;;;5115715;28;20499;-68
2022/06/02 12:26:38;;;;;;;5.00;1.93;;;19.00;72.60;;;;;;5115938;28;20098;-65
2022/06/02 12:29:34;;;;;;;4.47;1.70;;;19.00;73.30;;;;;;5052826;28;20402;-68
2022/06/02 12:32:34;;;;;;;4.20;1.87;;;18.90;74.60;;;;;;5053024;28;20119;-68
2022/06/02 12:35:38;;;;;;;3.33;1.50;;;18.80;75.90;;;;;;5109335;28;20039;-67
2022/06/02 12:38:29;;;;;;;2.73;1.53;;;18.60;79.50;;;;;;5085393;28;20048;-68
2022/06/02 12:41:22;;;;;;;4.07;1.40;;;18.60;79.40;;;;;;5114755;28;20044;-68
2022/06/02 12:44:33;;;;;;;2.60;1.40;;;18.60;78.70;;;;;;5114152;28;20047;-68
2022/06/02 12:47:23;;;;;;;3.77;1.40;;;18.60;80.40;;;;;;5115136;28;20146;-67
2022/06/02 12:50:27;;;;;;;3.67;1.73;;;18.70;79.80;;;;;;5095933;28;20483;-70
2022/06/02 12:53:11;;;;;;;4.47;1.77;;;18.90;78.60;;;;;;5114385;28;20044;-68
2022/06/02 12:56:26;;;;;;;4.53;1.65;;;19.00;77.70;;;;;;5112025;28;20051;-69
2022/06/02 12:59:24;;;;;;;3.87;1.40;;;19.20;78.60;;;;;;5068198;28;20100;-69
2022/06/02 13:02:03;;;;;;;3.37;1.40;;;19.30;75.50;;;;;;5113126;28;20055;-68
2022/06/02 13:04:50;;;;;;;4.73;1.57;;;19.40;74.60;;;;;;5113690;28;20114;-68
2022/06/02 13:07:45;;;;;;;2.87;1.50;;;19.40;73.60;;;;;;5096582;28;20077;-68
2022/06/02 13:10:33;;;;;;;5.60;1.88;;;19.40;72.40;;;;;;5113499;28;20050;-68
2022/06/02 13:13:18;;;;;;;3.90;2.00;;;19.40;74.60;;;;;;5112077;28;20048;-68
2022/06/02 13:16:10;;;;;;;4.05;2.00;;;19.40;74.90;;;;;;5112775;28;20129;-68
2022/06/02 13:19:10;;;;;;;3.70;1.80;;;19.20;74.10;;;;;;5114101;28;20045;-67
2022/06/02 13:22:10;;;;;;;3.67;1.60;;;19.20;74.10;;;;;;5114277;28;20040;-68
2022/06/02 13:24:57;;;;;;;2.77;1.60;;;19.00;75.30;;;;;;5108830;28;20047;-68
2022/06/02 13:28:10;;;;;;;5.80;1.50;;;18.90;76.30;;;;;;5114918;28;20466;-68
2022/06/02 13:31:10;;;;;;;3.70;1.50;;;19.00;78.70;;;;;;5109392;28;20513;-67
2022/06/02 13:33:57;;;;;;;5.33;1.70;;;;;;;;;;5114704;28;20552;-66
2022/06/02 13:36:41;;;;;;;4.00;1.60;;;;;;;;;;5082799;28;20095;-67
2022/06/02 13:39:07;;;;;;;2.72;1.55;;;;;;;;;;5096439;28;20138;-66
2022/06/02 13:41:51;;;;;;;3.87;1.67;;;;;;;;;;5114147;28;20040;-67
2022/06/02 13:44:31;;;;;;;3.07;1.40;;;;;;;;;;5114285;28;20044;-68
2022/06/02 13:47:12;;;;;;;5.13;1.70;;;;;;;;;;5114617;28;20043;-67
2022/06/02 13:49:44;;;;;;;4.13;1.67;;;;;;;;;;5114386;28;20044;-67
2022/06/02 13:52:24;;;;;;;3.30;1.53;;;;;;;;;;5094196;28;20388;-66
2022/06/02 13:58:12;;;;;;;4.10;1.63;;;;;;;;;;5109607;28;20087;-66
2022/06/02 14:00:59;;;;;;;3.83;1.77;;;18.70;76.00;;;;;;5112364;28;20056;-66
2022/06/02 14:04:00;;;;;;;5.77;1.80;;;18.90;76.50;;;;;;5108586;28;20039;-63
2022/06/02 14:06:30;;;;;;;2.57;1.57;;;18.70;75.50;;;;;;5110722;28;20036;-64
2022/06/02 14:09:20;;;;;;;4.17;1.53;;;18.60;78.10;;;;;;5109710;28;20043;-64
2022/06/02 14:11:56;;;;;;;5.37;1.70;;;18.50;78.60;;;;;;5109384;28;20054;-64
2022/06/02 14:14:55;;;;;;;3.43;1.60;;;18.50;79.60;;;;;;5089979;28;20048;-64
2022/06/02 14:17:36;;;;;;;3.50;1.90;;;18.40;79.50;;;;;;5111102;28;20250;-64
2022/06/02 14:20:20;;;;;;;4.03;1.73;;;18.40;81.60;;;;;;5110511;28;20051;-64
2022/06/02 14:23:21;;;;;;;5.23;1.60;;;18.30;82.50;;;;;;5108555;28;20105;-64
2022/06/02 14:26:05;;;;;;;4.30;1.73;;;18.40;82.60;;;;;;5111348;28;20062;-64
2022/06/02 14:28:58;;;;;;;5.53;1.50;;;18.40;80.40;;;;;;5109556;28;20050;-65
2022/06/02 14:31:58;;;;;;;4.33;1.90;;;18.40;80.50;;;;;;5109056;28;20054;-67
2022/06/02 14:34:30;;;;;;;3.67;1.70;;;18.50;81.50;;;;;;5044837;28;20116;-67
2022/06/02 14:37:15;;;;;;;4.67;1.70;;;18.60;82.60;;;;;;5101682;28;20495;-67
2022/06/02 14:39:43;;;;;;;3.28;1.50;;;18.70;79.70;;;;;;5108423;28;20130;-67
2022/06/02 14:42:18;;;;;;;4.40;1.77;;;18.70;80.70;;;;;;5109473;28;20063;-67
2022/06/02 14:45:12;;;;;;;5.25;1.80;;;18.70;80.40;;;;;;5109451;28;20120;-66
2022/06/02 14:48:00;;;;;;;5.25;1.70;;;18.70;80.50;;;;;;5111049;28;20158;-66
2022/06/02 14:50:49;;;;;;;3.67;1.80;;;18.80;82.70;;;;;;5094866;28;20086;-66
2022/06/02 14:53:24;;;;;;;4.80;1.70;;;18.90;81.30;;;;;;5110208;28;20075;-67
2022/06/02 14:55:52;;;;;;;;;;;18.90;80.80;;;;;;5113567;28;20047;-66
2022/06/02 14:58:47;;;;;;;3.90;1.70;;;18.90;76.10;;;;;;5113117;28;19981;-68
2022/06/02 15:01:16;;;;;;;3.97;1.67;;;19.00;76.00;;;;;;5093326;28;20044;-67
2022/06/02 15:04:08;;;;;;;4.73;1.67;;;;;;;;;;5112462;28;20440;-67
2022/06/02 15:06:47;;;;;;;3.87;1.60;;;19.10;78.70;;;;;;5112700;28;20047;-67